createdAt,value
2023-03-27T00:03:29.856Z,1.10
2023-03-27T00:08:22.012Z,1.27
2023-03-27T00:13:14.665Z,1.17
2023-03-27T00:18:16.131Z,1.20
2023-03-27T00:23:08.367Z,1.08
2023-03-27T00:28:03.519Z,1.27
2023-03-27T00:32:57.152Z,1.08
2023-03-27T00:37:49.811Z,1.20
2023-03-27T00:42:41.763Z,1.15
2023-03-27T00:47:36.186Z,1.33
2023-03-27T00:52:29.578Z,1.15
2023-03-27T00:57:22.259Z,1.08
2023-03-27T01:02:15.044Z,1.10
2023-03-27T01:07:13.366Z,1.67
2023-03-27T01:12:45.266Z,1.13
2023-03-27T01:23:12.790Z,1.15
2023-03-27T01:28:34.343Z,1.10
2023-03-27T01:33:44.509Z,1.17
2023-03-27T01:39:18.769Z,1.10
2023-03-27T01:44:44.624Z,1.30
2023-03-27T01:49:53.500Z,1.08
2023-03-27T01:54:53.472Z,1.20
2023-03-27T02:00:18.002Z,1.20
2023-03-27T02:05:17.539Z,1.05
2023-03-27T02:10:14.003Z,1.00
2023-03-27T02:15:22.589Z,0.98
2023-03-27T02:20:18.502Z,1.20
2023-03-27T02:25:25.604Z,1.00
2023-03-27T02:30:32.974Z,1.00
2023-03-27T02:35:41.177Z,0.88
2023-03-27T02:40:50.510Z,0.95
2023-03-27T02:46:23.714Z,1.05
2023-03-27T02:51:28.938Z,0.77
2023-03-27T02:56:22.410Z,1.00
2023-03-27T03:01:16.812Z,0.98
2023-03-27T03:06:30.136Z,1.00
2023-03-27T03:11:23.241Z,0.95
2023-03-27T03:16:26.129Z,1.00
2023-03-27T03:21:19.178Z,1.00
2023-03-27T03:26:14.096Z,1.08
2023-03-27T03:31:12.079Z,0.95
2023-03-27T03:36:05.147Z,0.93
2023-03-27T03:40:59.900Z,1.30
2023-03-27T03:45:52.432Z,0.90
2023-03-27T03:50:45.946Z,1.00
2023-03-27T03:55:41.224Z,1.00
2023-03-27T04:00:38.292Z,0.80
2023-03-27T04:05:36.264Z,0.80
2023-03-27T04:10:29.276Z,1.02
2023-03-27T04:15:22.710Z,1.10
2023-03-27T04:20:35.124Z,0.90
2023-03-27T04:25:29.926Z,0.98
2023-03-27T04:30:25.382Z,1.10
2023-03-27T04:36:06.005Z,1.00
2023-03-27T04:41:17.957Z,0.82
2023-03-27T04:46:10.042Z,0.90
2023-03-27T04:51:03.310Z,0.95
2023-03-27T04:55:59.579Z,1.00
2023-03-27T05:00:55.682Z,0.97
2023-03-27T05:06:12.085Z,0.80
2023-03-27T05:11:05.801Z,0.98
2023-03-27T05:16:06.084Z,1.10
2023-03-27T05:21:05.791Z,0.80
2023-03-27T05:26:17.498Z,0.90
2023-03-27T05:31:23.140Z,1.08
2023-03-27T05:36:27.866Z,1.05
2023-03-27T05:41:20.731Z,1.00
2023-03-27T05:46:21.028Z,1.38
2023-03-27T05:51:22.555Z,1.00
2023-03-27T05:56:14.847Z,1.10
2023-03-27T06:01:17.067Z,1.10
2023-03-27T06:06:11.710Z,1.07
2023-03-27T06:11:11.071Z,1.00
2023-03-27T06:16:22.845Z,0.80
2023-03-27T06:21:51.611Z,1.10
2023-03-27T06:26:43.656Z,1.10
2023-03-27T06:31:39.083Z,1.00
2023-03-27T06:36:39.739Z,1.15
2023-03-27T06:41:31.879Z,1.33
2023-03-27T06:46:42.798Z,1.10
2023-03-27T06:51:46.744Z,1.00
2023-03-27T06:56:40.865Z,1.20
2023-03-27T07:01:46.405Z,1.30
2023-03-27T07:06:57.131Z,1.20
2023-03-27T07:16:44.071Z,1.08
2023-03-27T07:21:36.340Z,1.10
2023-03-27T07:26:29.733Z,0.95
2023-03-27T07:31:37.321Z,1.00
2023-03-27T07:36:35.034Z,1.00
2023-03-27T07:41:30.839Z,0.80
2023-03-27T07:46:24.393Z,1.30
2023-03-27T07:51:18.919Z,0.95
2023-03-27T07:56:11.467Z,1.05
2023-03-27T08:01:06.355Z,1.40
2023-03-27T08:06:00.972Z,0.90
2023-03-27T08:10:57.173Z,1.17
2023-03-27T08:15:52.046Z,0.88
2023-03-27T08:20:48.600Z,1.33
2023-03-27T08:25:43.029Z,0.90
2023-03-27T08:30:35.745Z,1.20
2023-03-27T08:35:28.300Z,1.20
2023-03-27T08:40:26.423Z,1.20
2023-03-27T08:46:14.760Z,1.10
2023-03-27T08:51:11.135Z,1.33
2023-03-27T08:56:03.699Z,1.00
2023-03-27T09:01:26.551Z,1.10
2023-03-27T09:06:25.017Z,0.98
2023-03-27T09:11:39.225Z,1.10
2023-03-27T09:16:50.535Z,1.08
2023-03-27T09:22:09.849Z,0.93
2023-03-27T09:27:43.095Z,0.90
2023-03-27T09:33:06.626Z,0.82
2023-03-27T09:38:34.591Z,0.80
2023-03-27T09:44:00.786Z,1.05
2023-03-27T09:49:14.019Z,1.10
2023-03-27T09:54:17.093Z,1.30
2023-03-27T09:59:19.872Z,1.45
2023-03-27T10:04:18.712Z,1.10
2023-03-27T10:09:35.959Z,1.00
2023-03-27T10:14:44.232Z,0.82
2023-03-27T10:19:44.915Z,1.15
2023-03-27T10:24:48.894Z,1.00
2023-03-27T10:30:03.707Z,0.80
2023-03-27T10:34:58.468Z,1.00
2023-03-27T10:40:03.801Z,0.90
2023-03-27T10:45:04.593Z,1.05
2023-03-27T10:50:06.063Z,1.00
2023-03-27T10:55:52.163Z,0.73
2023-03-27T11:01:05.244Z,0.73
2023-03-27T11:05:59.411Z,1.10
2023-03-27T11:11:03.349Z,0.70
2023-03-27T11:16:11.626Z,1.10
2023-03-27T11:21:48.494Z,0.90
2023-03-27T11:26:59.123Z,1.00
2023-03-27T11:31:53.131Z,0.80
2023-03-27T11:37:48.726Z,0.80
2023-03-27T11:42:47.024Z,1.05
2023-03-27T11:47:45.816Z,0.88
2023-03-27T11:52:56.730Z,0.70
2023-03-27T11:58:30.031Z,0.80
2023-03-27T12:03:42.209Z,0.80
2023-03-27T12:09:07.287Z,0.82
2023-03-27T12:14:31.036Z,0.70
2023-03-27T12:19:50.921Z,1.00
2023-03-27T12:25:54.583Z,0.80
2023-03-27T12:31:39.819Z,0.80
2023-03-27T12:36:39.525Z,0.80
2023-03-27T12:41:36.070Z,0.60
2023-03-27T12:46:39.781Z,0.90
2023-03-27T12:51:41.977Z,0.80
2023-03-27T12:56:39.019Z,0.82
2023-03-27T13:01:51.838Z,0.95
2023-03-27T13:07:03.136Z,0.90
2023-03-27T13:12:21.527Z,0.80
2023-03-27T13:17:38.997Z,0.98
2023-03-27T13:22:48.269Z,0.93
2023-03-27T13:28:03.571Z,0.70
2023-03-27T13:33:14.477Z,0.80
2023-03-27T13:38:15.214Z,0.98
2023-03-27T13:43:28.703Z,0.88
2023-03-27T13:48:38.038Z,0.90
2023-03-27T13:53:52.067Z,0.88
2023-03-27T13:59:20.685Z,0.70
2023-03-27T14:04:33.418Z,0.80
2023-03-27T14:09:56.169Z,0.88
2023-03-27T14:15:26.993Z,0.73
2023-03-27T14:20:49.283Z,0.88
2023-03-27T14:25:53.861Z,0.63
2023-03-27T14:30:54.886Z,0.60
2023-03-27T14:36:06.743Z,0.80
2023-03-27T14:41:21.850Z,0.77
2023-03-27T14:46:22.298Z,0.90
2023-03-27T14:51:19.688Z,0.85
2023-03-27T14:56:41.451Z,0.90
2023-03-27T15:01:55.363Z,0.98
2023-03-27T15:06:50.236Z,0.90
2023-03-27T15:12:11.597Z,0.80
2023-03-27T15:17:15.003Z,0.70
2023-03-27T15:22:15.340Z,0.77
2023-03-27T15:27:20.171Z,0.80
2023-03-27T15:32:23.689Z,0.90
2023-03-27T15:37:24.610Z,0.80
2023-03-27T15:42:16.532Z,0.80
2023-03-27T15:47:30.240Z,0.70
2023-03-27T15:52:33.483Z,0.80
2023-03-27T15:57:29.467Z,0.75
2023-03-27T16:02:23.396Z,0.70
2023-03-27T16:07:23.803Z,0.70
2023-03-27T16:12:17.882Z,0.55
2023-03-27T16:17:20.087Z,0.70
2023-03-27T16:22:13.331Z,0.60
2023-03-27T16:27:05.706Z,0.57
2023-03-27T16:31:57.823Z,0.80
2023-03-27T16:36:49.876Z,0.60
2023-03-27T16:41:41.705Z,0.95
2023-03-27T16:46:33.620Z,0.50
2023-03-27T16:51:27.963Z,0.25
2023-03-27T16:56:46.345Z,0.25
2023-03-27T17:01:47.555Z,0.40
2023-03-27T17:07:06.118Z,0.30
2023-03-27T17:11:58.957Z,0.60
2023-03-27T17:16:52.986Z,0.52
2023-03-27T17:21:50.376Z,0.32
2023-03-27T17:26:43.316Z,0.30
2023-03-27T17:31:39.403Z,0.35
2023-03-27T17:36:42.902Z,0.40
2023-03-27T17:41:43.233Z,0.30
2023-03-27T17:46:35.318Z,0.30
2023-03-27T17:51:27.229Z,0.37
2023-03-27T17:56:19.078Z,0.50
2023-03-27T18:01:17.455Z,0.23
2023-03-27T18:06:10.507Z,0.63
2023-03-27T18:15:57.199Z,0.50
2023-03-27T18:21:03.804Z,0.50
2023-03-27T18:26:22.841Z,0.38
2023-03-27T18:31:15.918Z,0.55
2023-03-27T18:36:11.018Z,0.50
2023-03-27T18:41:03.206Z,0.35
2023-03-27T18:46:00.515Z,0.30
2023-03-27T18:51:10.079Z,0.38
2023-03-27T18:56:02.590Z,0.22
2023-03-27T19:00:56.976Z,0.30
2023-03-27T19:05:52.084Z,0.30
2023-03-27T19:10:44.261Z,0.30
2023-03-27T19:15:46.375Z,0.50
2023-03-27T19:21:00.885Z,0.35
2023-03-27T19:26:20.206Z,0.20
2023-03-27T19:31:12.712Z,0.30
2023-03-27T19:36:25.074Z,0.25
2023-03-27T19:41:23.187Z,0.33
2023-03-27T19:46:16.837Z,0.57
2023-03-27T19:51:08.913Z,0.38
2023-03-27T19:56:08.783Z,0.32
2023-03-27T20:01:28.571Z,0.40
2023-03-27T20:06:22.018Z,0.40
2023-03-27T20:11:13.979Z,0.32
2023-03-27T20:16:07.025Z,0.28
2023-03-27T20:21:04.734Z,0.25
2023-03-27T20:25:57.746Z,0.30
2023-03-27T20:30:50.048Z,0.30
2023-03-27T20:35:48.303Z,0.20
2023-03-27T20:40:53.350Z,0.22
2023-03-27T20:45:59.046Z,0.30
2023-03-27T20:50:52.514Z,0.40
2023-03-27T20:55:56.955Z,0.40
2023-03-27T21:00:54.320Z,0.30
2023-03-27T21:05:46.506Z,0.40
2023-03-27T21:10:38.955Z,0.40
2023-03-27T21:15:38.132Z,0.40
2023-03-27T21:20:30.226Z,0.20
2023-03-27T21:25:22.798Z,0.27
2023-03-27T21:30:22.260Z,0.25
2023-03-27T21:35:14.201Z,0.30
2023-03-27T21:40:07.043Z,0.20
2023-03-27T21:50:24.717Z,0.30
2023-03-27T21:55:17.058Z,0.30
2023-03-27T22:00:09.466Z,0.20
2023-03-27T22:05:08.174Z,0.30
2023-03-27T22:10:01.457Z,0.20
2023-03-27T22:14:54.460Z,0.17
2023-03-27T22:19:46.495Z,0.30
2023-03-27T22:24:38.488Z,0.40
2023-03-27T22:29:30.657Z,0.30
2023-03-27T22:34:50.157Z,0.30
2023-03-27T22:39:42.090Z,0.30
2023-03-27T22:44:36.148Z,0.43
2023-03-27T22:49:28.053Z,0.30
2023-03-27T22:54:22.212Z,0.22
2023-03-27T22:59:15.706Z,0.30
2023-03-27T23:04:07.631Z,0.20
2023-03-27T23:09:00.932Z,0.30
2023-03-27T23:13:53.121Z,0.30
2023-03-27T23:18:45.371Z,0.30
2023-03-27T23:23:40.302Z,0.30
2023-03-27T23:28:37.311Z,0.40
2023-03-27T23:33:33.304Z,0.20
2023-03-27T23:38:25.286Z,0.10
2023-03-27T23:43:17.180Z,0.20
2023-03-27T23:48:09.058Z,0.20
2023-03-27T23:53:00.981Z,0.30
2023-03-27T23:57:52.990Z,0.30
